sensor_id;sensor_type;location;lat;lon;timestamp;P1;durP1;ratioP1;P2;durP2;ratioP2
12663;SDS011;6396;58.490;15.528;2023-04-16T00:00:56;7.67;;;3.90;;
12663;SDS011;6396;58.490;15.528;2023-04-16T00:03:24;6.83;;;4.20;;
12663;SDS011;6396;58.490;15.528;2023-04-16T00:05:51;5.33;;;3.60;;
12663;SDS011;6396;58.490;15.528;2023-04-16T00:08:20;6.63;;;3.90;;
12663;SDS011;6396;58.490;15.528;2023-04-16T00:10:48;6.27;;;4.10;;
12663;SDS011;6396;58.490;15.528;2023-04-16T00:13:15;6.47;;;3.93;;
12663;SDS011;6396;58.490;15.528;2023-04-16T00:15:41;5.07;;;3.40;;
12663;SDS011;6396;58.490;15.528;2023-04-16T00:18:08;9.50;;;5.00;;
12663;SDS011;6396;58.490;15.528;2023-04-16T00:20:36;7.63;;;4.33;;
12663;SDS011;6396;58.490;15.528;2023-04-16T00:23:03;6.40;;;4.47;;
12663;SDS011;6396;58.490;15.528;2023-04-16T00:25:30;5.27;;;3.73;;
12663;SDS011;6396;58.490;15.528;2023-04-16T00:27:57;5.10;;;3.37;;
12663;SDS011;6396;58.490;15.528;2023-04-16T00:30:23;7.40;;;4.60;;
12663;SDS011;6396;58.490;15.528;2023-04-16T00:32:50;7.63;;;4.40;;
12663;SDS011;6396;58.490;15.528;2023-04-16T00:35:17;6.27;;;3.70;;
12663;SDS011;6396;58.490;15.528;2023-04-16T00:37:45;6.47;;;3.97;;
12663;SDS011;6396;58.490;15.528;2023-04-16T00:40:12;6.30;;;3.80;;
12663;SDS011;6396;58.490;15.528;2023-04-16T00:42:38;9.10;;;3.73;;
12663;SDS011;6396;58.490;15.528;2023-04-16T00:45:06;7.03;;;3.63;;
12663;SDS011;6396;58.490;15.528;2023-04-16T00:47:33;5.93;;;3.67;;
12663;SDS011;6396;58.490;15.528;2023-04-16T00:50:01;5.63;;;3.93;;
12663;SDS011;6396;58.490;15.528;2023-04-16T00:52:28;5.97;;;4.10;;
12663;SDS011;6396;58.490;15.528;2023-04-16T00:54:58;6.87;;;3.43;;
12663;SDS011;6396;58.490;15.528;2023-04-16T00:57:25;4.87;;;3.90;;
12663;SDS011;6396;58.490;15.528;2023-04-16T00:59:52;6.03;;;3.80;;
12663;SDS011;6396;58.490;15.528;2023-04-16T01:02:19;7.03;;;4.17;;
12663;SDS011;6396;58.490;15.528;2023-04-16T01:04:46;6.00;;;3.67;;
12663;SDS011;6396;58.490;15.528;2023-04-16T01:07:13;6.37;;;3.90;;
12663;SDS011;6396;58.490;15.528;2023-04-16T01:09:40;5.17;;;3.53;;
12663;SDS011;6396;58.490;15.528;2023-04-16T01:12:08;4.30;;;3.70;;
12663;SDS011;6396;58.490;15.528;2023-04-16T01:14:34;4.67;;;4.00;;
12663;SDS011;6396;58.490;15.528;2023-04-16T01:17:01;5.10;;;3.90;;
12663;SDS011;6396;58.490;15.528;2023-04-16T01:19:28;5.10;;;3.30;;
12663;SDS011;6396;58.490;15.528;2023-04-16T01:21:57;4.80;;;3.47;;
12663;SDS011;6396;58.490;15.528;2023-04-16T01:24:24;6.50;;;3.93;;
12663;SDS011;6396;58.490;15.528;2023-04-16T01:26:51;6.37;;;4.00;;
12663;SDS011;6396;58.490;15.528;2023-04-16T01:29:18;7.77;;;3.93;;
12663;SDS011;6396;58.490;15.528;2023-04-16T01:31:44;5.07;;;3.90;;
12663;SDS011;6396;58.490;15.528;2023-04-16T01:34:11;4.97;;;3.73;;
12663;SDS011;6396;58.490;15.528;2023-04-16T01:36:38;5.73;;;3.63;;
12663;SDS011;6396;58.490;15.528;2023-04-16T01:39:06;4.87;;;3.67;;
12663;SDS011;6396;58.490;15.528;2023-04-16T01:41:35;5.23;;;3.73;;
12663;SDS011;6396;58.490;15.528;2023-04-16T01:44:02;6.97;;;4.07;;
12663;SDS011;6396;58.490;15.528;2023-04-16T01:46:30;6.70;;;4.10;;
12663;SDS011;6396;58.490;15.528;2023-04-16T01:48:58;6.63;;;4.20;;
12663;SDS011;6396;58.490;15.528;2023-04-16T01:51:25;6.10;;;3.87;;
12663;SDS011;6396;58.490;15.528;2023-04-16T01:53:53;8.17;;;3.93;;
12663;SDS011;6396;58.490;15.528;2023-04-16T01:56:23;6.17;;;4.40;;
12663;SDS011;6396;58.490;15.528;2023-04-16T01:58:50;6.60;;;4.13;;
12663;SDS011;6396;58.490;15.528;2023-04-16T02:01:17;5.47;;;3.90;;
12663;SDS011;6396;58.490;15.528;2023-04-16T02:03:44;6.83;;;3.93;;
12663;SDS011;6396;58.490;15.528;2023-04-16T02:06:11;6.20;;;4.10;;
12663;SDS011;6396;58.490;15.528;2023-04-16T02:08:38;6.00;;;4.20;;
12663;SDS011;6396;58.490;15.528;2023-04-16T02:11:05;5.40;;;3.83;;
12663;SDS011;6396;58.490;15.528;2023-04-16T02:13:34;5.17;;;3.73;;
12663;SDS011;6396;58.490;15.528;2023-04-16T02:16:00;5.20;;;3.80;;
12663;SDS011;6396;58.490;15.528;2023-04-16T02:18:27;6.47;;;4.30;;
12663;SDS011;6396;58.490;15.528;2023-04-16T02:20:56;7.37;;;3.93;;
12663;SDS011;6396;58.490;15.528;2023-04-16T02:23:24;7.50;;;4.23;;
12663;SDS011;6396;58.490;15.528;2023-04-16T02:25:50;5.37;;;3.87;;
12663;SDS011;6396;58.490;15.528;2023-04-16T02:28:17;8.13;;;3.77;;
12663;SDS011;6396;58.490;15.528;2023-04-16T02:30:45;6.17;;;3.93;;
12663;SDS011;6396;58.490;15.528;2023-04-16T02:33:12;8.57;;;4.83;;
12663;SDS011;6396;58.490;15.528;2023-04-16T02:35:39;5.17;;;4.00;;
12663;SDS011;6396;58.490;15.528;2023-04-16T02:38:06;4.40;;;4.00;;
12663;SDS011;6396;58.490;15.528;2023-04-16T02:40:33;10.97;;;4.70;;
12663;SDS011;6396;58.490;15.528;2023-04-16T02:43:00;4.90;;;3.50;;
12663;SDS011;6396;58.490;15.528;2023-04-16T02:45:27;6.30;;;3.73;;
12663;SDS011;6396;58.490;15.528;2023-04-16T02:47:57;4.00;;;3.60;;
12663;SDS011;6396;58.490;15.528;2023-04-16T02:50:23;5.63;;;4.20;;
12663;SDS011;6396;58.490;15.528;2023-04-16T02:52:50;5.50;;;3.60;;
12663;SDS011;6396;58.490;15.528;2023-04-16T02:55:17;5.03;;;3.67;;
12663;SDS011;6396;58.490;15.528;2023-04-16T02:57:44;5.80;;;3.90;;
12663;SDS011;6396;58.490;15.528;2023-04-16T03:00:11;8.53;;;4.00;;
12663;SDS011;6396;58.490;15.528;2023-04-16T03:02:38;6.53;;;4.17;;
12663;SDS011;6396;58.490;15.528;2023-04-16T03:05:08;5.57;;;3.97;;
12663;SDS011;6396;58.490;15.528;2023-04-16T03:07:36;7.00;;;3.73;;
12663;SDS011;6396;58.490;15.528;2023-04-16T03:10:05;7.43;;;3.80;;
12663;SDS011;6396;58.490;15.528;2023-04-16T03:12:33;5.07;;;3.70;;
12663;SDS011;6396;58.490;15.528;2023-04-16T03:15:00;7.37;;;3.63;;
12663;SDS011;6396;58.490;15.528;2023-04-16T03:17:27;7.37;;;3.87;;
12663;SDS011;6396;58.490;15.528;2023-04-16T03:19:54;6.57;;;3.80;;
12663;SDS011;6396;58.490;15.528;2023-04-16T03:22:22;4.87;;;3.70;;
12663;SDS011;6396;58.490;15.528;2023-04-16T03:24:49;7.77;;;4.40;;
12663;SDS011;6396;58.490;15.528;2023-04-16T03:27:16;6.87;;;4.13;;
12663;SDS011;6396;58.490;15.528;2023-04-16T03:29:42;4.80;;;3.63;;
12663;SDS011;6396;58.490;15.528;2023-04-16T03:32:09;6.57;;;3.80;;
12663;SDS011;6396;58.490;15.528;2023-04-16T03:34:36;4.83;;;4.03;;
12663;SDS011;6396;58.490;15.528;2023-04-16T03:37:03;6.37;;;4.10;;
12663;SDS011;6396;58.490;15.528;2023-04-16T03:39:33;7.27;;;4.47;;
12663;SDS011;6396;58.490;15.528;2023-04-16T03:42:00;7.33;;;4.03;;
12663;SDS011;6396;58.490;15.528;2023-04-16T03:44:27;6.57;;;3.83;;
12663;SDS011;6396;58.490;15.528;2023-04-16T03:46:54;7.23;;;3.80;;
12663;SDS011;6396;58.490;15.528;2023-04-16T03:49:21;6.00;;;3.90;;
12663;SDS011;6396;58.490;15.528;2023-04-16T03:51:48;4.93;;;3.20;;
12663;SDS011;6396;58.490;15.528;2023-04-16T03:54:15;7.23;;;4.40;;
12663;SDS011;6396;58.490;15.528;2023-04-16T03:56:43;4.20;;;3.47;;
12663;SDS011;6396;58.490;15.528;2023-04-16T03:59:10;4.70;;;3.47;;
12663;SDS011;6396;58.490;15.528;2023-04-16T04:01:37;7.57;;;3.63;;
12663;SDS011;6396;58.490;15.528;2023-04-16T04:04:04;6.43;;;3.53;;
12663;SDS011;6396;58.490;15.528;2023-04-16T04:06:32;5.57;;;3.77;;
12663;SDS011;6396;58.490;15.528;2023-04-16T04:08:58;6.47;;;4.50;;
12663;SDS011;6396;58.490;15.528;2023-04-16T04:11:25;7.73;;;4.17;;
12663;SDS011;6396;58.490;15.528;2023-04-16T04:13:53;4.90;;;3.40;;
12663;SDS011;6396;58.490;15.528;2023-04-16T04:16:20;5.07;;;3.83;;
12663;SDS011;6396;58.490;15.528;2023-04-16T04:18:47;6.60;;;3.80;;
12663;SDS011;6396;58.490;15.528;2023-04-16T04:21:14;5.20;;;3.90;;
12663;SDS011;6396;58.490;15.528;2023-04-16T04:23:40;4.60;;;3.43;;
12663;SDS011;6396;58.490;15.528;2023-04-16T04:26:07;4.30;;;3.83;;
12663;SDS011;6396;58.490;15.528;2023-04-16T04:28:34;5.33;;;4.20;;
12663;SDS011;6396;58.490;15.528;2023-04-16T04:31:02;6.77;;;4.10;;
12663;SDS011;6396;58.490;15.528;2023-04-16T04:33:29;6.37;;;4.10;;
12663;SDS011;6396;58.490;15.528;2023-04-16T04:35:56;5.90;;;3.67;;
12663;SDS011;6396;58.490;15.528;2023-04-16T04:38:23;4.17;;;3.53;;
12663;SDS011;6396;58.490;15.528;2023-04-16T04:40:50;6.67;;;4.20;;
12663;SDS011;6396;58.490;15.528;2023-04-16T04:43:17;10.73;;;4.07;;
12663;SDS011;6396;58.490;15.528;2023-04-16T04:45:44;7.90;;;4.70;;
12663;SDS011;6396;58.490;15.528;2023-04-16T04:48:14;4.63;;;3.40;;
12663;SDS011;6396;58.490;15.528;2023-04-16T04:50:41;4.93;;;3.77;;
12663;SDS011;6396;58.490;15.528;2023-04-16T04:53:10;6.63;;;4.13;;
12663;SDS011;6396;58.490;15.528;2023-04-16T04:55:38;6.20;;;3.50;;
12663;SDS011;6396;58.490;15.528;2023-04-16T04:58:05;4.67;;;3.60;;
12663;SDS011;6396;58.490;15.528;2023-04-16T05:00:33;6.20;;;3.50;;
12663;SDS011;6396;58.490;15.528;2023-04-16T05:03:01;6.07;;;3.60;;
12663;SDS011;6396;58.490;15.528;2023-04-16T05:05:31;6.10;;;3.73;;
12663;SDS011;6396;58.490;15.528;2023-04-16T05:07:57;5.83;;;3.30;;
12663;SDS011;6396;58.490;15.528;2023-04-16T05:10:25;6.67;;;4.00;;
12663;SDS011;6396;58.490;15.528;2023-04-16T05:12:52;4.83;;;3.43;;
12663;SDS011;6396;58.490;15.528;2023-04-16T05:15:19;6.40;;;3.57;;
12663;SDS011;6396;58.490;15.528;2023-04-16T05:17:45;7.33;;;3.57;;
12663;SDS011;6396;58.490;15.528;2023-04-16T05:20:12;6.13;;;3.77;;
12663;SDS011;6396;58.490;15.528;2023-04-16T05:22:40;7.40;;;3.80;;
12663;SDS011;6396;58.490;15.528;2023-04-16T05:25:07;5.43;;;3.80;;
12663;SDS011;6396;58.490;15.528;2023-04-16T05:27:34;4.53;;;3.47;;
12663;SDS011;6396;58.490;15.528;2023-04-16T05:30:02;5.83;;;3.83;;
12663;SDS011;6396;58.490;15.528;2023-04-16T05:32:29;5.43;;;3.97;;
12663;SDS011;6396;58.490;15.528;2023-04-16T05:34:56;4.20;;;3.07;;
12663;SDS011;6396;58.490;15.528;2023-04-16T05:37:22;6.27;;;3.87;;
12663;SDS011;6396;58.490;15.528;2023-04-16T05:39:51;5.50;;;3.10;;
12663;SDS011;6396;58.490;15.528;2023-04-16T05:42:17;5.23;;;3.70;;
12663;SDS011;6396;58.490;15.528;2023-04-16T05:44:44;4.27;;;3.50;;
12663;SDS011;6396;58.490;15.528;2023-04-16T05:47:11;5.47;;;3.70;;
12663;SDS011;6396;58.490;15.528;2023-04-16T05:49:37;4.73;;;3.87;;
12663;SDS011;6396;58.490;15.528;2023-04-16T05:52:04;6.53;;;3.53;;
12663;SDS011;6396;58.490;15.528;2023-04-16T05:54:31;4.70;;;3.60;;
12663;SDS011;6396;58.490;15.528;2023-04-16T05:56:59;4.93;;;3.67;;
12663;SDS011;6396;58.490;15.528;2023-04-16T05:59:26;4.40;;;3.13;;
12663;SDS011;6396;58.490;15.528;2023-04-16T06:01:53;5.53;;;3.57;;
12663;SDS011;6396;58.490;15.528;2023-04-16T06:04:20;4.27;;;3.20;;
12663;SDS011;6396;58.490;15.528;2023-04-16T06:06:47;4.80;;;3.50;;
12663;SDS011;6396;58.490;15.528;2023-04-16T06:09:14;4.53;;;3.60;;
12663;SDS011;6396;58.490;15.528;2023-04-16T06:11:40;4.07;;;3.33;;
12663;SDS011;6396;58.490;15.528;2023-04-16T06:14:09;6.60;;;3.30;;
12663;SDS011;6396;58.490;15.528;2023-04-16T06:16:36;6.57;;;3.43;;
12663;SDS011;6396;58.490;15.528;2023-04-16T06:19:03;4.43;;;3.13;;
12663;SDS011;6396;58.490;15.528;2023-04-16T06:21:30;5.53;;;3.23;;
12663;SDS011;6396;58.490;15.528;2023-04-16T06:23:57;3.37;;;3.00;;
12663;SDS011;6396;58.490;15.528;2023-04-16T06:26:24;4.43;;;3.57;;
12663;SDS011;6396;58.490;15.528;2023-04-16T06:28:51;5.13;;;3.07;;
12663;SDS011;6396;58.490;15.528;2023-04-16T06:31:28;6.13;;;3.60;;
12663;SDS011;6396;58.490;15.528;2023-04-16T06:33:57;5.90;;;3.00;;
12663;SDS011;6396;58.490;15.528;2023-04-16T06:36:24;8.57;;;3.17;;
12663;SDS011;6396;58.490;15.528;2023-04-16T06:38:53;4.33;;;2.97;;
12663;SDS011;6396;58.490;15.528;2023-04-16T06:41:20;5.30;;;3.07;;
12663;SDS011;6396;58.490;15.528;2023-04-16T06:43:49;3.13;;;2.73;;
12663;SDS011;6396;58.490;15.528;2023-04-16T06:46:16;4.00;;;3.00;;
12663;SDS011;6396;58.490;15.528;2023-04-16T06:48:44;3.37;;;2.63;;
12663;SDS011;6396;58.490;15.528;2023-04-16T06:51:11;4.37;;;2.77;;
12663;SDS011;6396;58.490;15.528;2023-04-16T06:53:38;4.17;;;3.30;;
12663;SDS011;6396;58.490;15.528;2023-04-16T06:56:07;5.60;;;2.93;;
12663;SDS011;6396;58.490;15.528;2023-04-16T06:58:36;3.70;;;3.07;;
12663;SDS011;6396;58.490;15.528;2023-04-16T07:01:03;5.40;;;2.90;;
12663;SDS011;6396;58.490;15.528;2023-04-16T07:03:30;4.23;;;2.90;;
12663;SDS011;6396;58.490;15.528;2023-04-16T07:05:58;3.67;;;2.90;;
12663;SDS011;6396;58.490;15.528;2023-04-16T07:08:25;3.87;;;3.10;;
12663;SDS011;6396;58.490;15.528;2023-04-16T07:10:52;4.77;;;2.80;;
12663;SDS011;6396;58.490;15.528;2023-04-16T07:13:19;2.83;;;2.47;;
12663;SDS011;6396;58.490;15.528;2023-04-16T07:15:46;4.80;;;2.93;;
12663;SDS011;6396;58.490;15.528;2023-04-16T07:18:13;3.57;;;2.93;;
12663;SDS011;6396;58.490;15.528;2023-04-16T07:20:40;3.00;;;2.67;;
12663;SDS011;6396;58.490;15.528;2023-04-16T07:23:08;6.07;;;3.20;;
12663;SDS011;6396;58.490;15.528;2023-04-16T07:25:36;3.17;;;2.67;;
12663;SDS011;6396;58.490;15.528;2023-04-16T07:28:03;4.47;;;3.20;;
12663;SDS011;6396;58.490;15.528;2023-04-16T07:30:30;3.90;;;2.77;;
12663;SDS011;6396;58.490;15.528;2023-04-16T07:32:58;3.20;;;2.83;;
12663;SDS011;6396;58.490;15.528;2023-04-16T07:35:26;2.77;;;2.40;;
12663;SDS011;6396;58.490;15.528;2023-04-16T07:38:06;2.77;;;2.33;;
12663;SDS011;6396;58.490;15.528;2023-04-16T07:40:37;3.13;;;2.83;;
12663;SDS011;6396;58.490;15.528;2023-04-16T07:43:18;3.10;;;2.80;;
12663;SDS011;6396;58.490;15.528;2023-04-16T07:46:15;4.17;;;2.47;;
12663;SDS011;6396;58.490;15.528;2023-04-16T07:48:54;3.27;;;2.90;;
12663;SDS011;6396;58.490;15.528;2023-04-16T07:51:21;3.33;;;2.67;;
12663;SDS011;6396;58.490;15.528;2023-04-16T07:53:53;3.50;;;2.57;;
12663;SDS011;6396;58.490;15.528;2023-04-16T07:56:20;3.77;;;2.50;;
12663;SDS011;6396;58.490;15.528;2023-04-16T07:58:54;4.70;;;2.70;;
12663;SDS011;6396;58.490;15.528;2023-04-16T08:01:41;4.27;;;2.50;;
12663;SDS011;6396;58.490;15.528;2023-04-16T08:04:10;2.87;;;2.67;;
12663;SDS011;6396;58.490;15.528;2023-04-16T08:14:21;5.07;;;2.47;;
12663;SDS011;6396;58.490;15.528;2023-04-16T08:17:07;2.50;;;2.30;;
12663;SDS011;6396;58.490;15.528;2023-04-16T08:19:37;3.30;;;2.60;;
12663;SDS011;6396;58.490;15.528;2023-04-16T08:22:07;3.07;;;2.40;;
12663;SDS011;6396;58.490;15.528;2023-04-16T08:24:34;2.53;;;2.33;;
12663;SDS011;6396;58.490;15.528;2023-04-16T08:27:01;3.27;;;2.70;;
12663;SDS011;6396;58.490;15.528;2023-04-16T08:29:29;3.33;;;3.00;;
12663;SDS011;6396;58.490;15.528;2023-04-16T08:31:56;3.10;;;2.83;;
12663;SDS011;6396;58.490;15.528;2023-04-16T08:34:24;3.47;;;2.80;;
12663;SDS011;6396;58.490;15.528;2023-04-16T08:36:51;5.37;;;2.83;;
12663;SDS011;6396;58.490;15.528;2023-04-16T08:39:18;3.10;;;2.80;;
12663;SDS011;6396;58.490;15.528;2023-04-16T08:41:47;3.10;;;2.60;;
12663;SDS011;6396;58.490;15.528;2023-04-16T08:44:19;3.37;;;2.73;;
12663;SDS011;6396;58.490;15.528;2023-04-16T08:46:49;3.23;;;2.47;;
12663;SDS011;6396;58.490;15.528;2023-04-16T08:49:21;3.53;;;2.50;;
12663;SDS011;6396;58.490;15.528;2023-04-16T08:51:50;4.93;;;3.40;;
12663;SDS011;6396;58.490;15.528;2023-04-16T08:54:20;5.27;;;2.90;;
12663;SDS011;6396;58.490;15.528;2023-04-16T08:57:01;3.40;;;2.57;;
12663;SDS011;6396;58.490;15.528;2023-04-16T08:59:32;4.53;;;2.60;;
12663;SDS011;6396;58.490;15.528;2023-04-16T09:02:00;2.77;;;2.40;;
12663;SDS011;6396;58.490;15.528;2023-04-16T09:04:27;3.03;;;2.33;;
12663;SDS011;6396;58.490;15.528;2023-04-16T09:06:54;3.40;;;2.33;;
12663;SDS011;6396;58.490;15.528;2023-04-16T09:09:22;4.53;;;2.50;;
12663;SDS011;6396;58.490;15.528;2023-04-16T09:11:51;2.67;;;2.47;;
12663;SDS011;6396;58.490;15.528;2023-04-16T09:14:18;3.03;;;2.70;;
12663;SDS011;6396;58.490;15.528;2023-04-16T09:16:46;4.70;;;2.50;;
12663;SDS011;6396;58.490;15.528;2023-04-16T09:19:16;2.70;;;2.50;;
12663;SDS011;6396;58.490;15.528;2023-04-16T09:21:45;3.43;;;2.47;;
12663;SDS011;6396;58.490;15.528;2023-04-16T09:24:12;5.40;;;2.67;;
12663;SDS011;6396;58.490;15.528;2023-04-16T09:26:40;5.83;;;3.07;;
12663;SDS011;6396;58.490;15.528;2023-04-16T09:29:07;2.60;;;2.40;;
12663;SDS011;6396;58.490;15.528;2023-04-16T09:31:34;2.90;;;2.50;;
12663;SDS011;6396;58.490;15.528;2023-04-16T09:34:01;3.13;;;2.57;;
12663;SDS011;6396;58.490;15.528;2023-04-16T09:36:30;3.40;;;2.67;;
12663;SDS011;6396;58.490;15.528;2023-04-16T09:38:58;3.07;;;2.30;;
12663;SDS011;6396;58.490;15.528;2023-04-16T09:41:25;3.63;;;2.70;;
12663;SDS011;6396;58.490;15.528;2023-04-16T09:43:53;4.63;;;2.80;;
12663;SDS011;6396;58.490;15.528;2023-04-16T09:46:22;2.73;;;2.33;;
12663;SDS011;6396;58.490;15.528;2023-04-16T09:48:49;2.60;;;2.40;;
12663;SDS011;6396;58.490;15.528;2023-04-16T09:51:16;3.30;;;2.60;;
12663;SDS011;6396;58.490;15.528;2023-04-16T09:53:44;4.23;;;2.57;;
12663;SDS011;6396;58.490;15.528;2023-04-16T09:56:11;4.43;;;2.70;;
12663;SDS011;6396;58.490;15.528;2023-04-16T09:58:38;3.23;;;2.70;;
12663;SDS011;6396;58.490;15.528;2023-04-16T10:01:06;2.87;;;2.57;;
12663;SDS011;6396;58.490;15.528;2023-04-16T10:03:35;2.67;;;2.47;;
12663;SDS011;6396;58.490;15.528;2023-04-16T10:06:06;3.57;;;2.50;;
12663;SDS011;6396;58.490;15.528;2023-04-16T10:08:34;4.07;;;2.80;;
12663;SDS011;6396;58.490;15.528;2023-04-16T10:11:02;4.07;;;2.80;;
12663;SDS011;6396;58.490;15.528;2023-04-16T10:13:30;3.83;;;2.43;;
12663;SDS011;6396;58.490;15.528;2023-04-16T10:15:57;4.10;;;2.70;;
12663;SDS011;6396;58.490;15.528;2023-04-16T10:18:24;4.93;;;2.33;;
12663;SDS011;6396;58.490;15.528;2023-04-16T10:20:52;4.20;;;2.67;;
12663;SDS011;6396;58.490;15.528;2023-04-16T10:23:20;4.63;;;2.80;;
12663;SDS011;6396;58.490;15.528;2023-04-16T10:25:47;3.40;;;2.47;;
12663;SDS011;6396;58.490;15.528;2023-04-16T10:28:15;5.37;;;2.77;;
12663;SDS011;6396;58.490;15.528;2023-04-16T10:30:43;6.07;;;2.60;;
12663;SDS011;6396;58.490;15.528;2023-04-16T10:33:17;4.20;;;2.77;;
12663;SDS011;6396;58.490;15.528;2023-04-16T10:35:46;3.83;;;2.80;;
12663;SDS011;6396;58.490;15.528;2023-04-16T10:38:23;3.83;;;2.77;;
12663;SDS011;6396;58.490;15.528;2023-04-16T10:40:57;2.97;;;2.57;;
12663;SDS011;6396;58.490;15.528;2023-04-16T10:43:26;3.43;;;2.90;;
12663;SDS011;6396;58.490;15.528;2023-04-16T10:45:54;4.97;;;2.70;;
12663;SDS011;6396;58.490;15.528;2023-04-16T10:48:22;5.77;;;2.80;;
12663;SDS011;6396;58.490;15.528;2023-04-16T10:50:53;4.40;;;2.70;;
12663;SDS011;6396;58.490;15.528;2023-04-16T10:53:22;3.17;;;2.50;;
12663;SDS011;6396;58.490;15.528;2023-04-16T10:58:40;5.97;;;3.00;;
12663;SDS011;6396;58.490;15.528;2023-04-16T11:01:10;3.40;;;2.63;;
12663;SDS011;6396;58.490;15.528;2023-04-16T11:03:42;4.87;;;2.83;;
12663;SDS011;6396;58.490;15.528;2023-04-16T11:06:12;5.33;;;2.90;;
12663;SDS011;6396;58.490;15.528;2023-04-16T11:08:40;3.93;;;2.43;;
12663;SDS011;6396;58.490;15.528;2023-04-16T11:11:09;2.97;;;2.53;;
12663;SDS011;6396;58.490;15.528;2023-04-16T11:13:36;4.17;;;2.90;;
12663;SDS011;6396;58.490;15.528;2023-04-16T11:16:05;3.10;;;2.80;;
12663;SDS011;6396;58.490;15.528;2023-04-16T11:18:32;3.70;;;2.70;;
12663;SDS011;6396;58.490;15.528;2023-04-16T11:20:59;3.33;;;3.00;;
12663;SDS011;6396;58.490;15.528;2023-04-16T11:23:26;3.70;;;2.90;;
12663;SDS011;6396;58.490;15.528;2023-04-16T11:25:53;4.80;;;2.50;;
12663;SDS011;6396;58.490;15.528;2023-04-16T11:28:31;4.43;;;2.80;;
12663;SDS011;6396;58.490;15.528;2023-04-16T11:30:58;2.97;;;2.67;;
12663;SDS011;6396;58.490;15.528;2023-04-16T11:33:35;3.33;;;2.93;;
12663;SDS011;6396;58.490;15.528;2023-04-16T11:36:03;6.33;;;2.80;;
12663;SDS011;6396;58.490;15.528;2023-04-16T11:38:34;3.53;;;2.60;;
12663;SDS011;6396;58.490;15.528;2023-04-16T11:41:02;3.03;;;2.73;;
12663;SDS011;6396;58.490;15.528;2023-04-16T11:43:29;5.37;;;3.17;;
12663;SDS011;6396;58.490;15.528;2023-04-16T11:45:56;4.17;;;2.80;;
12663;SDS011;6396;58.490;15.528;2023-04-16T11:48:24;4.60;;;2.93;;
12663;SDS011;6396;58.490;15.528;2023-04-16T11:51:12;3.23;;;2.90;;
12663;SDS011;6396;58.490;15.528;2023-04-16T11:53:44;3.40;;;3.10;;
12663;SDS011;6396;58.490;15.528;2023-04-16T11:56:13;5.07;;;2.87;;
12663;SDS011;6396;58.490;15.528;2023-04-16T11:58:41;4.63;;;3.07;;
12663;SDS011;6396;58.490;15.528;2023-04-16T12:01:08;3.03;;;2.73;;
12663;SDS011;6396;58.490;15.528;2023-04-16T12:03:36;4.50;;;3.00;;
12663;SDS011;6396;58.490;15.528;2023-04-16T12:06:08;4.03;;;2.93;;
12663;SDS011;6396;58.490;15.528;2023-04-16T12:08:37;4.43;;;3.30;;
12663;SDS011;6396;58.490;15.528;2023-04-16T12:11:03;3.60;;;2.70;;
12663;SDS011;6396;58.490;15.528;2023-04-16T12:13:30;3.33;;;2.70;;
12663;SDS011;6396;58.490;15.528;2023-04-16T12:16:06;4.53;;;3.00;;
12663;SDS011;6396;58.490;15.528;2023-04-16T12:18:57;4.70;;;3.00;;
12663;SDS011;6396;58.490;15.528;2023-04-16T12:21:25;3.10;;;2.80;;
12663;SDS011;6396;58.490;15.528;2023-04-16T12:24:03;3.37;;;2.40;;
12663;SDS011;6396;58.490;15.528;2023-04-16T12:26:36;3.40;;;2.93;;
12663;SDS011;6396;58.490;15.528;2023-04-16T12:29:18;2.93;;;2.63;;
12663;SDS011;6396;58.490;15.528;2023-04-16T12:31:46;3.70;;;2.90;;
12663;SDS011;6396;58.490;15.528;2023-04-16T12:34:13;5.80;;;2.90;;
12663;SDS011;6396;58.490;15.528;2023-04-16T12:36:41;4.47;;;3.07;;
12663;SDS011;6396;58.490;15.528;2023-04-16T12:39:10;5.20;;;2.90;;
12663;SDS011;6396;58.490;15.528;2023-04-16T12:41:38;3.10;;;2.80;;
12663;SDS011;6396;58.490;15.528;2023-04-16T12:44:06;3.43;;;3.13;;
12663;SDS011;6396;58.490;15.528;2023-04-16T12:46:36;4.37;;;2.93;;
12663;SDS011;6396;58.490;15.528;2023-04-16T12:49:03;5.60;;;3.20;;
12663;SDS011;6396;58.490;15.528;2023-04-16T12:51:30;8.03;;;2.93;;
12663;SDS011;6396;58.490;15.528;2023-04-16T12:53:57;4.30;;;2.97;;
12663;SDS011;6396;58.490;15.528;2023-04-16T12:56:26;4.60;;;2.63;;
12663;SDS011;6396;58.490;15.528;2023-04-16T12:58:53;3.73;;;2.60;;
12663;SDS011;6396;58.490;15.528;2023-04-16T13:01:19;4.43;;;3.03;;
12663;SDS011;6396;58.490;15.528;2023-04-16T13:03:47;3.63;;;2.80;;
12663;SDS011;6396;58.490;15.528;2023-04-16T13:06:15;3.63;;;2.97;;
12663;SDS011;6396;58.490;15.528;2023-04-16T13:08:43;3.87;;;2.70;;
12663;SDS011;6396;58.490;15.528;2023-04-16T13:11:10;3.47;;;2.83;;
12663;SDS011;6396;58.490;15.528;2023-04-16T13:13:38;2.87;;;2.57;;
12663;SDS011;6396;58.490;15.528;2023-04-16T13:16:05;3.13;;;2.70;;
12663;SDS011;6396;58.490;15.528;2023-04-16T13:18:33;3.23;;;2.67;;
12663;SDS011;6396;58.490;15.528;2023-04-16T13:21:01;5.90;;;3.10;;
12663;SDS011;6396;58.490;15.528;2023-04-16T13:23:28;3.17;;;2.70;;
12663;SDS011;6396;58.490;15.528;2023-04-16T13:25:54;3.00;;;2.57;;
12663;SDS011;6396;58.490;15.528;2023-04-16T13:28:21;3.60;;;2.57;;
12663;SDS011;6396;58.490;15.528;2023-04-16T13:30:50;3.83;;;2.70;;
12663;SDS011;6396;58.490;15.528;2023-04-16T13:33:17;2.93;;;2.63;;
12663;SDS011;6396;58.490;15.528;2023-04-16T13:35:46;3.53;;;3.17;;
12663;SDS011;6396;58.490;15.528;2023-04-16T13:38:13;3.43;;;3.10;;
12663;SDS011;6396;58.490;15.528;2023-04-16T13:40:40;5.73;;;3.13;;
12663;SDS011;6396;58.490;15.528;2023-04-16T13:43:06;4.00;;;3.17;;
12663;SDS011;6396;58.490;15.528;2023-04-16T13:45:33;3.40;;;3.10;;
12663;SDS011;6396;58.490;15.528;2023-04-16T13:48:02;3.27;;;2.90;;
12663;SDS011;6396;58.490;15.528;2023-04-16T13:50:29;3.50;;;2.97;;
12663;SDS011;6396;58.490;15.528;2023-04-16T13:52:56;5.27;;;2.90;;
12663;SDS011;6396;58.490;15.528;2023-04-16T13:55:23;3.47;;;3.00;;
12663;SDS011;6396;58.490;15.528;2023-04-16T13:57:49;3.23;;;2.70;;
12663;SDS011;6396;58.490;15.528;2023-04-16T14:00:17;4.93;;;2.97;;
12663;SDS011;6396;58.490;15.528;2023-04-16T14:02:44;3.23;;;2.83;;
12663;SDS011;6396;58.490;15.528;2023-04-16T14:05:14;4.27;;;3.17;;
12663;SDS011;6396;58.490;15.528;2023-04-16T14:07:40;3.80;;;3.07;;
12663;SDS011;6396;58.490;15.528;2023-04-16T14:10:08;5.40;;;3.07;;
12663;SDS011;6396;58.490;15.528;2023-04-16T14:12:35;3.10;;;2.80;;
12663;SDS011;6396;58.490;15.528;2023-04-16T14:15:04;3.53;;;2.70;;
12663;SDS011;6396;58.490;15.528;2023-04-16T14:17:33;3.70;;;2.90;;
12663;SDS011;6396;58.490;15.528;2023-04-16T14:20:01;6.10;;;3.17;;
12663;SDS011;6396;58.490;15.528;2023-04-16T14:22:33;3.33;;;2.80;;
12663;SDS011;6396;58.490;15.528;2023-04-16T14:25:00;5.17;;;3.30;;
12663;SDS011;6396;58.490;15.528;2023-04-16T14:27:29;4.07;;;2.73;;
12663;SDS011;6396;58.490;15.528;2023-04-16T14:29:56;3.87;;;3.00;;
12663;SDS011;6396;58.490;15.528;2023-04-16T14:32:23;3.90;;;3.03;;
12663;SDS011;6396;58.490;15.528;2023-04-16T14:34:49;3.90;;;3.17;;
12663;SDS011;6396;58.490;15.528;2023-04-16T14:37:16;3.93;;;2.90;;
12663;SDS011;6396;58.490;15.528;2023-04-16T14:39:45;5.77;;;3.27;;
12663;SDS011;6396;58.490;15.528;2023-04-16T14:42:12;3.30;;;3.00;;
12663;SDS011;6396;58.490;15.528;2023-04-16T14:44:38;3.50;;;3.03;;
12663;SDS011;6396;58.490;15.528;2023-04-16T14:47:05;3.50;;;2.90;;
12663;SDS011;6396;58.490;15.528;2023-04-16T14:49:32;6.33;;;2.70;;
12663;SDS011;6396;58.490;15.528;2023-04-16T14:51:59;4.90;;;3.10;;
12663;SDS011;6396;58.490;15.528;2023-04-16T14:54:29;4.90;;;3.00;;
12663;SDS011;6396;58.490;15.528;2023-04-16T14:56:58;3.57;;;3.27;;
12663;SDS011;6396;58.490;15.528;2023-04-16T14:59:26;3.07;;;2.77;;
12663;SDS011;6396;58.490;15.528;2023-04-16T15:01:53;2.87;;;2.60;;
12663;SDS011;6396;58.490;15.528;2023-04-16T15:04:21;5.60;;;3.07;;